sensor_id;sensor_type;location;lat;lon;timestamp;temperature;humidity
23873;DHT22;42884;50.718;4.630;2023-09-18T00:00:48;20.40;99.90
23873;DHT22;42884;50.718;4.630;2023-09-18T00:03:17;20.40;99.90
23873;DHT22;42884;50.718;4.630;2023-09-18T00:05:45;20.40;99.90
23873;DHT22;42884;50.718;4.630;2023-09-18T00:08:10;20.40;99.90
23873;DHT22;42884;50.718;4.630;2023-09-18T00:10:36;20.50;99.90
23873;DHT22;42884;50.718;4.630;2023-09-18T00:13:02;20.50;99.90
23873;DHT22;42884;50.718;4.630;2023-09-18T00:15:27;20.50;99.90
23873;DHT22;42884;50.718;4.630;2023-09-18T00:17:53;20.50;99.90
23873;DHT22;42884;50.718;4.630;2023-09-18T00:20:19;20.50;99.90
23873;DHT22;42884;50.718;4.630;2023-09-18T00:22:44;20.50;99.90
23873;DHT22;42884;50.718;4.630;2023-09-18T00:25:10;20.50;99.90
23873;DHT22;42884;50.718;4.630;2023-09-18T00:27:36;20.50;99.90
23873;DHT22;42884;50.718;4.630;2023-09-18T00:30:05;20.50;99.90
23873;DHT22;42884;50.718;4.630;2023-09-18T00:32:31;20.50;99.90
23873;DHT22;42884;50.718;4.630;2023-09-18T00:34:57;20.60;99.90
23873;DHT22;42884;50.718;4.630;2023-09-18T00:37:22;20.60;99.90
23873;DHT22;42884;50.718;4.630;2023-09-18T00:39:49;20.60;99.90
23873;DHT22;42884;50.718;4.630;2023-09-18T00:42:15;20.50;99.90
23873;DHT22;42884;50.718;4.630;2023-09-18T00:44:43;20.30;99.90
23873;DHT22;42884;50.718;4.630;2023-09-18T00:47:09;20.30;99.90
23873;DHT22;42884;50.718;4.630;2023-09-18T00:49:35;20.20;99.90
23873;DHT22;42884;50.718;4.630;2023-09-18T00:52:02;20.30;99.90
23873;DHT22;42884;50.718;4.630;2023-09-18T00:54:28;20.30;99.90
23873;DHT22;42884;50.718;4.630;2023-09-18T00:56:54;20.30;99.90
23873;DHT22;42884;50.718;4.630;2023-09-18T00:59:20;20.50;99.90
23873;DHT22;42884;50.718;4.630;2023-09-18T01:01:46;20.60;99.90
23873;DHT22;42884;50.718;4.630;2023-09-18T01:04:14;20.60;99.90
23873;DHT22;42884;50.718;4.630;2023-09-18T01:06:40;20.70;99.90
23873;DHT22;42884;50.718;4.630;2023-09-18T01:09:05;20.70;99.90
23873;DHT22;42884;50.718;4.630;2023-09-18T01:16:53;20.90;99.90
23873;DHT22;42884;50.718;4.630;2023-09-18T01:19:53;20.90;99.90
23873;DHT22;42884;50.718;4.630;2023-09-18T01:22:13;20.90;99.90
23873;DHT22;42884;50.718;4.630;2023-09-18T01:24:38;20.90;99.90
23873;DHT22;42884;50.718;4.630;2023-09-18T01:27:05;20.90;99.90
23873;DHT22;42884;50.718;4.630;2023-09-18T01:29:31;20.90;99.90
23873;DHT22;42884;50.718;4.630;2023-09-18T01:31:56;20.80;99.90
23873;DHT22;42884;50.718;4.630;2023-09-18T01:34:33;20.80;99.90
23873;DHT22;42884;50.718;4.630;2023-09-18T01:37:01;20.80;99.90
23873;DHT22;42884;50.718;4.630;2023-09-18T01:39:28;20.80;99.90
23873;DHT22;42884;50.718;4.630;2023-09-18T01:42:00;20.90;99.90
23873;DHT22;42884;50.718;4.630;2023-09-18T01:44:32;20.90;99.90
23873;DHT22;42884;50.718;4.630;2023-09-18T01:46:58;21.00;99.90
23873;DHT22;42884;50.718;4.630;2023-09-18T01:49:34;21.00;99.90
23873;DHT22;42884;50.718;4.630;2023-09-18T01:52:01;21.10;99.90
23873;DHT22;42884;50.718;4.630;2023-09-18T01:54:27;21.00;99.90
23873;DHT22;42884;50.718;4.630;2023-09-18T01:56:52;21.00;99.90
23873;DHT22;42884;50.718;4.630;2023-09-18T01:59:21;21.00;99.90
23873;DHT22;42884;50.718;4.630;2023-09-18T02:01:47;21.00;99.90
23873;DHT22;42884;50.718;4.630;2023-09-18T02:04:13;21.10;99.90
23873;DHT22;42884;50.718;4.630;2023-09-18T02:06:38;21.10;99.90
23873;DHT22;42884;50.718;4.630;2023-09-18T02:09:05;21.10;99.90
23873;DHT22;42884;50.718;4.630;2023-09-18T02:11:30;21.20;99.90
23873;DHT22;42884;50.718;4.630;2023-09-18T02:13:56;21.20;99.90
23873;DHT22;42884;50.718;4.630;2023-09-18T02:16:22;21.20;99.90
23873;DHT22;42884;50.718;4.630;2023-09-18T02:18:49;21.20;99.90
23873;DHT22;42884;50.718;4.630;2023-09-18T02:21:19;21.20;99.90
23873;DHT22;42884;50.718;4.630;2023-09-18T02:23:45;21.10;99.90
23873;DHT22;42884;50.718;4.630;2023-09-18T02:26:14;21.10;99.90
23873;DHT22;42884;50.718;4.630;2023-09-18T02:28:39;21.20;99.90
23873;DHT22;42884;50.718;4.630;2023-09-18T02:31:05;21.00;99.90
23873;DHT22;42884;50.718;4.630;2023-09-18T02:33:30;21.00;99.90
23873;DHT22;42884;50.718;4.630;2023-09-18T02:35:56;21.00;99.90
23873;DHT22;42884;50.718;4.630;2023-09-18T02:38:22;21.00;99.90
23873;DHT22;42884;50.718;4.630;2023-09-18T02:40:48;21.00;99.90
23873;DHT22;42884;50.718;4.630;2023-09-18T02:43:13;20.90;99.90
23873;DHT22;42884;50.718;4.630;2023-09-18T02:45:39;21.00;99.90
23873;DHT22;42884;50.718;4.630;2023-09-18T02:48:05;21.00;99.90
23873;DHT22;42884;50.718;4.630;2023-09-18T02:50:30;21.00;99.90
23873;DHT22;42884;50.718;4.630;2023-09-18T02:52:56;21.00;99.90
23873;DHT22;42884;50.718;4.630;2023-09-18T02:55:22;21.00;99.90
23873;DHT22;42884;50.718;4.630;2023-09-18T02:57:47;21.00;99.90
23873;DHT22;42884;50.718;4.630;2023-09-18T03:00:13;21.00;99.90
23873;DHT22;42884;50.718;4.630;2023-09-18T03:02:39;21.00;99.90
23873;DHT22;42884;50.718;4.630;2023-09-18T03:05:04;20.90;99.90
23873;DHT22;42884;50.718;4.630;2023-09-18T03:07:30;20.90;99.90
23873;DHT22;42884;50.718;4.630;2023-09-18T03:09:55;20.90;99.90
23873;DHT22;42884;50.718;4.630;2023-09-18T03:12:21;20.90;99.90
23873;DHT22;42884;50.718;4.630;2023-09-18T03:14:47;20.80;99.90
23873;DHT22;42884;50.718;4.630;2023-09-18T03:17:13;20.80;99.90
23873;DHT22;42884;50.718;4.630;2023-09-18T03:19:39;20.90;99.90
23873;DHT22;42884;50.718;4.630;2023-09-18T03:22:04;20.90;99.90
23873;DHT22;42884;50.718;4.630;2023-09-18T03:24:30;20.80;99.90
23873;DHT22;42884;50.718;4.630;2023-09-18T03:26:55;20.80;99.90
23873;DHT22;42884;50.718;4.630;2023-09-18T03:29:21;20.80;99.90
23873;DHT22;42884;50.718;4.630;2023-09-18T03:31:47;20.80;99.90
23873;DHT22;42884;50.718;4.630;2023-09-18T03:34:12;20.70;99.90
23873;DHT22;42884;50.718;4.630;2023-09-18T03:36:38;20.70;99.90
23873;DHT22;42884;50.718;4.630;2023-09-18T03:39:04;20.70;99.90
23873;DHT22;42884;50.718;4.630;2023-09-18T03:41:30;20.70;99.90
23873;DHT22;42884;50.718;4.630;2023-09-18T03:44:02;20.50;99.90
23873;DHT22;42884;50.718;4.630;2023-09-18T03:46:28;20.50;99.90
23873;DHT22;42884;50.718;4.630;2023-09-18T03:48:53;20.40;99.90
23873;DHT22;42884;50.718;4.630;2023-09-18T03:51:20;20.40;99.90
23873;DHT22;42884;50.718;4.630;2023-09-18T03:53:45;20.30;99.90
23873;DHT22;42884;50.718;4.630;2023-09-18T03:56:13;20.30;99.90
23873;DHT22;42884;50.718;4.630;2023-09-18T03:58:38;20.30;99.90
23873;DHT22;42884;50.718;4.630;2023-09-18T04:01:04;20.30;99.90
23873;DHT22;42884;50.718;4.630;2023-09-18T04:03:30;20.30;99.90
23873;DHT22;42884;50.718;4.630;2023-09-18T04:05:55;20.20;99.90
23873;DHT22;42884;50.718;4.630;2023-09-18T04:08:21;20.20;99.90
23873;DHT22;42884;50.718;4.630;2023-09-18T04:10:47;20.20;99.90
23873;DHT22;42884;50.718;4.630;2023-09-18T04:13:13;20.20;99.90
23873;DHT22;42884;50.718;4.630;2023-09-18T04:15:39;20.10;99.90
23873;DHT22;42884;50.718;4.630;2023-09-18T04:18:04;20.00;99.90
23873;DHT22;42884;50.718;4.630;2023-09-18T04:20:33;20.10;99.90
23873;DHT22;42884;50.718;4.630;2023-09-18T04:25:43;20.00;99.90
23873;DHT22;42884;50.718;4.630;2023-09-18T04:28:08;20.00;99.90
23873;DHT22;42884;50.718;4.630;2023-09-18T04:30:35;19.90;99.90
23873;DHT22;42884;50.718;4.630;2023-09-18T04:33:01;19.90;99.90
23873;DHT22;42884;50.718;4.630;2023-09-18T04:35:26;19.90;99.90
23873;DHT22;42884;50.718;4.630;2023-09-18T04:37:55;19.90;99.90
23873;DHT22;42884;50.718;4.630;2023-09-18T04:40:21;19.80;99.90
23873;DHT22;42884;50.718;4.630;2023-09-18T04:42:46;19.70;99.90
23873;DHT22;42884;50.718;4.630;2023-09-18T04:45:12;19.80;99.90
23873;DHT22;42884;50.718;4.630;2023-09-18T04:47:38;19.80;99.90
23873;DHT22;42884;50.718;4.630;2023-09-18T04:50:03;19.80;99.90
23873;DHT22;42884;50.718;4.630;2023-09-18T04:52:35;19.80;99.90
23873;DHT22;42884;50.718;4.630;2023-09-18T04:55:01;19.80;99.90
23873;DHT22;42884;50.718;4.630;2023-09-18T04:57:26;19.70;99.90
23873;DHT22;42884;50.718;4.630;2023-09-18T04:59:52;19.70;99.90
23873;DHT22;42884;50.718;4.630;2023-09-18T05:02:18;19.60;99.90
23873;DHT22;42884;50.718;4.630;2023-09-18T05:04:43;19.70;99.90
23873;DHT22;42884;50.718;4.630;2023-09-18T05:07:09;19.60;99.90
23873;DHT22;42884;50.718;4.630;2023-09-18T05:09:34;19.60;99.90
23873;DHT22;42884;50.718;4.630;2023-09-18T05:12:00;19.60;99.90
23873;DHT22;42884;50.718;4.630;2023-09-18T05:14:26;19.60;99.90
23873;DHT22;42884;50.718;4.630;2023-09-18T05:16:51;19.60;99.90
23873;DHT22;42884;50.718;4.630;2023-09-18T05:19:17;19.60;99.90
23873;DHT22;42884;50.718;4.630;2023-09-18T05:21:43;19.60;99.90
23873;DHT22;42884;50.718;4.630;2023-09-18T05:24:08;19.60;99.90
23873;DHT22;42884;50.718;4.630;2023-09-18T05:26:34;19.50;99.90
23873;DHT22;42884;50.718;4.630;2023-09-18T05:29:00;19.50;99.90
23873;DHT22;42884;50.718;4.630;2023-09-18T05:31:25;19.50;99.90
23873;DHT22;42884;50.718;4.630;2023-09-18T05:33:52;19.50;99.90
23873;DHT22;42884;50.718;4.630;2023-09-18T05:36:17;19.50;99.90
23873;DHT22;42884;50.718;4.630;2023-09-18T05:38:43;19.40;99.90
23873;DHT22;42884;50.718;4.630;2023-09-18T05:41:08;19.50;99.90
23873;DHT22;42884;50.718;4.630;2023-09-18T05:43:35;19.50;99.90
23873;DHT22;42884;50.718;4.630;2023-09-18T05:46:01;19.50;99.90
23873;DHT22;42884;50.718;4.630;2023-09-18T05:48:27;19.50;99.90
23873;DHT22;42884;50.718;4.630;2023-09-18T05:50:52;19.40;99.90
23873;DHT22;42884;50.718;4.630;2023-09-18T05:53:19;19.40;99.90
23873;DHT22;42884;50.718;4.630;2023-09-18T05:55:45;19.40;99.90
23873;DHT22;42884;50.718;4.630;2023-09-18T05:58:11;19.40;99.90
23873;DHT22;42884;50.718;4.630;2023-09-18T06:00:36;19.40;99.90
23873;DHT22;42884;50.718;4.630;2023-09-18T06:03:02;19.40;99.90
23873;DHT22;42884;50.718;4.630;2023-09-18T06:05:28;19.40;99.90
23873;DHT22;42884;50.718;4.630;2023-09-18T06:07:56;19.40;99.90
23873;DHT22;42884;50.718;4.630;2023-09-18T06:10:22;19.40;99.90
23873;DHT22;42884;50.718;4.630;2023-09-18T06:12:47;19.40;99.90
23873;DHT22;42884;50.718;4.630;2023-09-18T06:15:13;19.30;99.90
23873;DHT22;42884;50.718;4.630;2023-09-18T06:17:40;19.40;99.90
23873;DHT22;42884;50.718;4.630;2023-09-18T06:20:07;19.40;99.90
23873;DHT22;42884;50.718;4.630;2023-09-18T06:22:38;19.50;99.90
23873;DHT22;42884;50.718;4.630;2023-09-18T06:25:07;19.50;99.90
23873;DHT22;42884;50.718;4.630;2023-09-18T06:27:34;19.50;99.90
23873;DHT22;42884;50.718;4.630;2023-09-18T06:30:00;19.50;99.90
23873;DHT22;42884;50.718;4.630;2023-09-18T06:32:26;19.50;99.90
23873;DHT22;42884;50.718;4.630;2023-09-18T06:34:51;19.50;99.90
23873;DHT22;42884;50.718;4.630;2023-09-18T06:37:17;19.50;99.90
23873;DHT22;42884;50.718;4.630;2023-09-18T06:39:43;19.40;99.90
23873;DHT22;42884;50.718;4.630;2023-09-18T06:42:09;19.40;99.90
23873;DHT22;42884;50.718;4.630;2023-09-18T06:44:35;19.50;99.90
23873;DHT22;42884;50.718;4.630;2023-09-18T06:47:00;19.40;99.90
23873;DHT22;42884;50.718;4.630;2023-09-18T06:49:26;19.50;99.90
23873;DHT22;42884;50.718;4.630;2023-09-18T06:51:52;19.60;99.90
23873;DHT22;42884;50.718;4.630;2023-09-18T06:54:18;19.60;99.90
23873;DHT22;42884;50.718;4.630;2023-09-18T06:56:44;19.60;99.90
23873;DHT22;42884;50.718;4.630;2023-09-18T06:59:10;19.50;99.90
23873;DHT22;42884;50.718;4.630;2023-09-18T07:01:37;19.60;99.90
23873;DHT22;42884;50.718;4.630;2023-09-18T07:04:03;19.60;99.90
23873;DHT22;42884;50.718;4.630;2023-09-18T07:06:30;19.60;99.90
23873;DHT22;42884;50.718;4.630;2023-09-18T07:08:55;19.70;99.90
23873;DHT22;42884;50.718;4.630;2023-09-18T07:11:21;19.70;99.90
23873;DHT22;42884;50.718;4.630;2023-09-18T07:13:47;19.70;99.90
23873;DHT22;42884;50.718;4.630;2023-09-18T07:16:12;19.70;99.90
23873;DHT22;42884;50.718;4.630;2023-09-18T07:18:38;19.70;99.90
23873;DHT22;42884;50.718;4.630;2023-09-18T07:21:04;19.50;99.90
23873;DHT22;42884;50.718;4.630;2023-09-18T07:23:30;19.60;99.90
23873;DHT22;42884;50.718;4.630;2023-09-18T07:25:55;19.50;99.90
23873;DHT22;42884;50.718;4.630;2023-09-18T07:28:24;19.50;99.90
23873;DHT22;42884;50.718;4.630;2023-09-18T07:30:49;19.40;99.90
23873;DHT22;42884;50.718;4.630;2023-09-18T07:33:15;19.40;99.90
23873;DHT22;42884;50.718;4.630;2023-09-18T07:35:44;19.40;99.90
23873;DHT22;42884;50.718;4.630;2023-09-18T07:38:12;19.60;99.90
23873;DHT22;42884;50.718;4.630;2023-09-18T07:40:38;19.50;99.90
23873;DHT22;42884;50.718;4.630;2023-09-18T07:43:03;19.60;99.90
23873;DHT22;42884;50.718;4.630;2023-09-18T07:45:29;19.80;99.90
23873;DHT22;42884;50.718;4.630;2023-09-18T07:47:54;19.90;99.90
23873;DHT22;42884;50.718;4.630;2023-09-18T07:50:20;20.00;99.90
23873;DHT22;42884;50.718;4.630;2023-09-18T07:52:45;20.10;99.90
23873;DHT22;42884;50.718;4.630;2023-09-18T07:55:11;20.20;99.90
23873;DHT22;42884;50.718;4.630;2023-09-18T07:57:37;20.30;99.90
23873;DHT22;42884;50.718;4.630;2023-09-18T08:00:04;20.40;99.90
23873;DHT22;42884;50.718;4.630;2023-09-18T08:02:36;20.30;99.90
23873;DHT22;42884;50.718;4.630;2023-09-18T08:05:04;20.40;99.90
23873;DHT22;42884;50.718;4.630;2023-09-18T08:07:30;20.40;99.90
23873;DHT22;42884;50.718;4.630;2023-09-18T08:09:56;20.50;99.90
23873;DHT22;42884;50.718;4.630;2023-09-18T08:12:22;20.50;99.90
23873;DHT22;42884;50.718;4.630;2023-09-18T08:14:48;20.50;99.90
23873;DHT22;42884;50.718;4.630;2023-09-18T08:17:15;20.70;99.90
23873;DHT22;42884;50.718;4.630;2023-09-18T08:19:41;20.70;99.90
23873;DHT22;42884;50.718;4.630;2023-09-18T08:22:06;20.70;99.90
23873;DHT22;42884;50.718;4.630;2023-09-18T08:24:32;20.70;99.90
23873;DHT22;42884;50.718;4.630;2023-09-18T08:26:58;20.70;99.90
23873;DHT22;42884;50.718;4.630;2023-09-18T08:29:23;20.80;99.90
23873;DHT22;42884;50.718;4.630;2023-09-18T08:31:49;21.00;99.90
23873;DHT22;42884;50.718;4.630;2023-09-18T08:34:16;21.00;99.90
23873;DHT22;42884;50.718;4.630;2023-09-18T08:36:42;21.10;99.90
23873;DHT22;42884;50.718;4.630;2023-09-18T08:39:07;21.20;99.90
23873;DHT22;42884;50.718;4.630;2023-09-18T08:41:33;21.30;99.90
23873;DHT22;42884;50.718;4.630;2023-09-18T08:44:03;21.20;99.90
23873;DHT22;42884;50.718;4.630;2023-09-18T08:46:30;21.30;99.90
23873;DHT22;42884;50.718;4.630;2023-09-18T08:48:55;21.40;99.90
23873;DHT22;42884;50.718;4.630;2023-09-18T08:51:22;21.20;99.90
23873;DHT22;42884;50.718;4.630;2023-09-18T08:53:48;21.30;99.90
23873;DHT22;42884;50.718;4.630;2023-09-18T08:56:14;21.50;99.90
23873;DHT22;42884;50.718;4.630;2023-09-18T08:58:42;21.70;99.90
23873;DHT22;42884;50.718;4.630;2023-09-18T09:01:08;21.90;99.90
23873;DHT22;42884;50.718;4.630;2023-09-18T09:03:36;21.80;99.90
23873;DHT22;42884;50.718;4.630;2023-09-18T09:06:02;22.00;99.90
23873;DHT22;42884;50.718;4.630;2023-09-18T09:08:28;22.10;99.90
23873;DHT22;42884;50.718;4.630;2023-09-18T09:10:54;22.00;99.90
23873;DHT22;42884;50.718;4.630;2023-09-18T09:13:19;22.10;99.90
23873;DHT22;42884;50.718;4.630;2023-09-18T09:15:51;22.40;99.90
23873;DHT22;42884;50.718;4.630;2023-09-18T09:18:19;22.70;99.90
23873;DHT22;42884;50.718;4.630;2023-09-18T09:23:23;22.50;99.90
23873;DHT22;42884;50.718;4.630;2023-09-18T09:25:48;22.70;99.90
23873;DHT22;42884;50.718;4.630;2023-09-18T09:28:14;22.60;99.90
23873;DHT22;42884;50.718;4.630;2023-09-18T09:30:41;22.40;99.90
23873;DHT22;42884;50.718;4.630;2023-09-18T09:33:07;22.50;99.90
23873;DHT22;42884;50.718;4.630;2023-09-18T09:35:38;22.60;99.90
23873;DHT22;42884;50.718;4.630;2023-09-18T09:40:33;22.60;99.90
23873;DHT22;42884;50.718;4.630;2023-09-18T09:43:00;22.60;99.90
23873;DHT22;42884;50.718;4.630;2023-09-18T09:45:27;22.90;99.90
23873;DHT22;42884;50.718;4.630;2023-09-18T09:47:54;23.00;99.90
23873;DHT22;42884;50.718;4.630;2023-09-18T09:50:20;23.20;99.90
23873;DHT22;42884;50.718;4.630;2023-09-18T09:52:48;23.70;99.90
23873;DHT22;42884;50.718;4.630;2023-09-18T09:55:21;24.40;99.90
23873;DHT22;42884;50.718;4.630;2023-09-18T09:57:47;24.50;99.90
23873;DHT22;42884;50.718;4.630;2023-09-18T10:00:14;24.50;99.90
23873;DHT22;42884;50.718;4.630;2023-09-18T10:02:56;24.50;99.90
23873;DHT22;42884;50.718;4.630;2023-09-18T10:05:24;24.40;99.90
23873;DHT22;42884;50.718;4.630;2023-09-18T10:07:51;24.00;99.90
23873;DHT22;42884;50.718;4.630;2023-09-18T10:10:17;23.80;99.90
23873;DHT22;42884;50.718;4.630;2023-09-18T10:12:43;23.60;99.90
23873;DHT22;42884;50.718;4.630;2023-09-18T10:15:11;23.40;99.90
23873;DHT22;42884;50.718;4.630;2023-09-18T10:17:37;23.40;99.90
23873;DHT22;42884;50.718;4.630;2023-09-18T10:20:12;23.60;99.90
23873;DHT22;42884;50.718;4.630;2023-09-18T10:22:48;24.40;99.90
23873;DHT22;42884;50.718;4.630;2023-09-18T10:25:17;25.30;99.90
23873;DHT22;42884;50.718;4.630;2023-09-18T10:27:47;25.50;99.90
23873;DHT22;42884;50.718;4.630;2023-09-18T10:30:15;25.80;99.90
23873;DHT22;42884;50.718;4.630;2023-09-18T10:32:43;26.40;99.90
23873;DHT22;42884;50.718;4.630;2023-09-18T10:35:10;26.50;99.90
23873;DHT22;42884;50.718;4.630;2023-09-18T10:37:38;26.30;99.90
23873;DHT22;42884;50.718;4.630;2023-09-18T10:40:06;25.80;99.90
23873;DHT22;42884;50.718;4.630;2023-09-18T10:42:34;25.80;99.90
23873;DHT22;42884;50.718;4.630;2023-09-18T10:45:00;25.60;99.90
23873;DHT22;42884;50.718;4.630;2023-09-18T10:47:26;25.70;99.90
23873;DHT22;42884;50.718;4.630;2023-09-18T10:49:52;25.80;99.90
23873;DHT22;42884;50.718;4.630;2023-09-18T10:52:17;25.60;99.90
23873;DHT22;42884;50.718;4.630;2023-09-18T10:54:43;25.30;99.90
23873;DHT22;42884;50.718;4.630;2023-09-18T10:57:09;25.00;99.90
23873;DHT22;42884;50.718;4.630;2023-09-18T10:59:42;24.80;99.90
23873;DHT22;42884;50.718;4.630;2023-09-18T11:02:08;24.60;99.90
23873;DHT22;42884;50.718;4.630;2023-09-18T11:04:34;24.90;99.90
23873;DHT22;42884;50.718;4.630;2023-09-18T11:07:01;25.00;99.90
23873;DHT22;42884;50.718;4.630;2023-09-18T11:09:29;25.00;99.90
23873;DHT22;42884;50.718;4.630;2023-09-18T11:22:30;24.60;99.90
23873;DHT22;42884;50.718;4.630;2023-09-18T11:25:28;24.50;99.90
23873;DHT22;42884;50.718;4.630;2023-09-18T11:27:54;24.10;99.90
23873;DHT22;42884;50.718;4.630;2023-09-18T11:30:22;24.10;99.90
23873;DHT22;42884;50.718;4.630;2023-09-18T11:32:49;24.00;99.90
23873;DHT22;42884;50.718;4.630;2023-09-18T11:35:15;24.00;99.90
23873;DHT22;42884;50.718;4.630;2023-09-18T11:37:44;24.00;99.90
23873;DHT22;42884;50.718;4.630;2023-09-18T11:45:41;24.00;99.90
23873;DHT22;42884;50.718;4.630;2023-09-18T11:48:07;24.30;99.90
23873;DHT22;42884;50.718;4.630;2023-09-18T11:50:36;24.40;99.90
23873;DHT22;42884;50.718;4.630;2023-09-18T11:53:02;24.60;99.90
23873;DHT22;42884;50.718;4.630;2023-09-18T11:55:28;24.70;99.90
23873;DHT22;42884;50.718;4.630;2023-09-18T11:57:54;24.80;99.90
23873;DHT22;42884;50.718;4.630;2023-09-18T12:00:23;24.80;99.90
23873;DHT22;42884;50.718;4.630;2023-09-18T12:02:52;24.70;99.90
23873;DHT22;42884;50.718;4.630;2023-09-18T12:05:18;25.00;99.90
23873;DHT22;42884;50.718;4.630;2023-09-18T12:07:44;25.00;99.90
23873;DHT22;42884;50.718;4.630;2023-09-18T12:10:14;25.00;99.90
23873;DHT22;42884;50.718;4.630;2023-09-18T12:12:41;24.90;99.90
23873;DHT22;42884;50.718;4.630;2023-09-18T12:15:07;25.20;99.90
23873;DHT22;42884;50.718;4.630;2023-09-18T12:17:36;25.10;99.90
23873;DHT22;42884;50.718;4.630;2023-09-18T12:20:01;25.10;99.90
23873;DHT22;42884;50.718;4.630;2023-09-18T12:22:29;25.00;99.90
23873;DHT22;42884;50.718;4.630;2023-09-18T12:25:12;25.00;99.90
23873;DHT22;42884;50.718;4.630;2023-09-18T12:27:39;25.00;99.90
23873;DHT22;42884;50.718;4.630;2023-09-18T12:30:05;24.90;99.90
23873;DHT22;42884;50.718;4.630;2023-09-18T12:32:31;25.10;99.90
23873;DHT22;42884;50.718;4.630;2023-09-18T12:34:58;25.30;99.90
23873;DHT22;42884;50.718;4.630;2023-09-18T12:37:23;25.50;99.90
23873;DHT22;42884;50.718;4.630;2023-09-18T12:39:50;25.50;99.90
23873;DHT22;42884;50.718;4.630;2023-09-18T12:42:18;25.60;99.90
23873;DHT22;42884;50.718;4.630;2023-09-18T12:44:45;25.30;99.90
23873;DHT22;42884;50.718;4.630;2023-09-18T12:47:11;25.40;99.90
23873;DHT22;42884;50.718;4.630;2023-09-18T12:49:37;25.70;99.90
23873;DHT22;42884;50.718;4.630;2023-09-18T12:52:05;26.00;99.90
23873;DHT22;42884;50.718;4.630;2023-09-18T12:54:40;26.20;99.90
23873;DHT22;42884;50.718;4.630;2023-09-18T12:57:06;26.30;99.90
23873;DHT22;42884;50.718;4.630;2023-09-18T12:59:32;26.60;99.90
23873;DHT22;42884;50.718;4.630;2023-09-18T13:01:59;26.70;99.90
23873;DHT22;42884;50.718;4.630;2023-09-18T13:04:24;26.90;99.90
23873;DHT22;42884;50.718;4.630;2023-09-18T13:07:04;27.20;99.90
23873;DHT22;42884;50.718;4.630;2023-09-18T13:09:31;27.40;99.90
23873;DHT22;42884;50.718;4.630;2023-09-18T13:11:57;27.10;99.90
23873;DHT22;42884;50.718;4.630;2023-09-18T13:14:23;26.90;99.90
23873;DHT22;42884;50.718;4.630;2023-09-18T13:16:49;26.60;99.90
23873;DHT22;42884;50.718;4.630;2023-09-18T13:19:14;26.90;99.90
23873;DHT22;42884;50.718;4.630;2023-09-18T13:21:46;27.10;99.90
23873;DHT22;42884;50.718;4.630;2023-09-18T13:24:23;27.00;99.90
23873;DHT22;42884;50.718;4.630;2023-09-18T13:26:49;26.90;99.90
23873;DHT22;42884;50.718;4.630;2023-09-18T13:29:15;27.20;99.90
23873;DHT22;42884;50.718;4.630;2023-09-18T13:31:40;27.20;99.90
23873;DHT22;42884;50.718;4.630;2023-09-18T13:34:06;27.30;99.90
23873;DHT22;42884;50.718;4.630;2023-09-18T13:36:31;27.50;99.90
23873;DHT22;42884;50.718;4.630;2023-09-18T13:38:58;27.30;99.90
23873;DHT22;42884;50.718;4.630;2023-09-18T13:41:24;27.50;99.90
23873;DHT22;42884;50.718;4.630;2023-09-18T13:43:49;27.40;99.90
23873;DHT22;42884;50.718;4.630;2023-09-18T13:46:20;27.70;99.90
23873;DHT22;42884;50.718;4.630;2023-09-18T13:48:45;27.70;99.90
23873;DHT22;42884;50.718;4.630;2023-09-18T13:51:13;27.80;99.90
23873;DHT22;42884;50.718;4.630;2023-09-18T13:53:38;28.10;99.90
23873;DHT22;42884;50.718;4.630;2023-09-18T13:56:06;27.90;99.90
23873;DHT22;42884;50.718;4.630;2023-09-18T13:58:32;27.80;99.90
23873;DHT22;42884;50.718;4.630;2023-09-18T14:00:58;28.20;99.90
23873;DHT22;42884;50.718;4.630;2023-09-18T14:03:24;28.30;99.90
23873;DHT22;42884;50.718;4.630;2023-09-18T14:05:50;27.80;99.90
23873;DHT22;42884;50.718;4.630;2023-09-18T14:08:19;27.90;99.90
23873;DHT22;42884;50.718;4.630;2023-09-18T14:10:44;28.10;99.90
23873;DHT22;42884;50.718;4.630;2023-09-18T14:13:10;28.30;99.90
23873;DHT22;42884;50.718;4.630;2023-09-18T14:15:35;28.20;99.90
23873;DHT22;42884;50.718;4.630;2023-09-18T14:18:02;28.20;99.90
23873;DHT22;42884;50.718;4.630;2023-09-18T14:20:28;28.20;99.90
23873;DHT22;42884;50.718;4.630;2023-09-18T14:22:54;28.00;99.90
23873;DHT22;42884;50.718;4.630;2023-09-18T14:25:20;27.90;99.90
23873;DHT22;42884;50.718;4.630;2023-09-18T14:27:47;28.10;99.90
23873;DHT22;42884;50.718;4.630;2023-09-18T14:30:13;28.10;99.90
23873;DHT22;42884;50.718;4.630;2023-09-18T14:32:39;27.80;99.90
23873;DHT22;42884;50.718;4.630;2023-09-18T14:35:05;27.40;99.90
23873;DHT22;42884;50.718;4.630;2023-09-18T14:37:33;26.90;99.90
23873;DHT22;42884;50.718;4.630;2023-09-18T14:39:59;26.50;99.90
23873;DHT22;42884;50.718;4.630;2023-09-18T14:42:25;25.90;99.90
23873;DHT22;42884;50.718;4.630;2023-09-18T14:44:50;25.60;99.90
23873;DHT22;42884;50.718;4.630;2023-09-18T14:47:16;25.60;99.90
23873;DHT22;42884;50.718;4.630;2023-09-18T14:49:42;25.50;99.90
23873;DHT22;42884;50.718;4.630;2023-09-18T14:52:11;25.10;99.90
23873;DHT22;42884;50.718;4.630;2023-09-18T14:54:37;25.20;99.90
23873;DHT22;42884;50.718;4.630;2023-09-18T14:57:05;25.40;99.90
23873;DHT22;42884;50.718;4.630;2023-09-18T14:59:31;25.60;99.90
23873;DHT22;42884;50.718;4.630;2023-09-18T15:01:56;25.80;99.90
23873;DHT22;42884;50.718;4.630;2023-09-18T15:04:22;25.60;99.90
23873;DHT22;42884;50.718;4.630;2023-09-18T15:06:48;25.70;99.90
23873;DHT22;42884;50.718;4.630;2023-09-18T15:09:13;25.80;99.90
23873;DHT22;42884;50.718;4.630;2023-09-18T15:11:39;25.90;99.90
23873;DHT22;42884;50.718;4.630;2023-09-18T15:14:05;26.10;99.90
23873;DHT22;42884;50.718;4.630;2023-09-18T15:16:31;25.80;99.90
23873;DHT22;42884;50.718;4.630;2023-09-18T15:18:57;25.50;99.90
23873;DHT22;42884;50.718;4.630;2023-09-18T15:21:25;25.10;99.90
23873;DHT22;42884;50.718;4.630;2023-09-18T15:23:51;24.90;99.90
23873;DHT22;42884;50.718;4.630;2023-09-18T15:26:17;24.60;99.90
23873;DHT22;42884;50.718;4.630;2023-09-18T15:28:43;24.30;99.90
23873;DHT22;42884;50.718;4.630;2023-09-18T15:31:08;24.00;99.90
23873;DHT22;42884;50.718;4.630;2023-09-18T15:33:34;23.90;99.90
23873;DHT22;42884;50.718;4.630;2023-09-18T15:36:09;23.80;99.90
23873;DHT22;42884;50.718;4.630;2023-09-18T15:38:34;23.90;99.90
23873;DHT22;42884;50.718;4.630;2023-09-18T15:41:00;23.80;99.90
23873;DHT22;42884;50.718;4.630;2023-09-18T15:43:26;23.60;99.90
23873;DHT22;42884;50.718;4.630;2023-09-18T15:45:53;23.50;99.90
23873;DHT22;42884;50.718;4.630;2023-09-18T15:48:18;23.50;99.90
23873;DHT22;42884;50.718;4.630;2023-09-18T15:50:44;23.40;99.90
23873;DHT22;42884;50.718;4.630;2023-09-18T15:53:10;23.10;99.90
23873;DHT22;42884;50.718;4.630;2023-09-18T15:55:35;22.90;99.90